createdAt,value
2022-12-25T00:01:22.786Z,100964.81
2022-12-25T00:03:53.118Z,100977.22
2022-12-25T00:06:23.490Z,100965.97
2022-12-25T00:08:52.993Z,100969.16
2022-12-25T00:11:23.207Z,100969.34
2022-12-25T00:13:53.443Z,100966.38
2022-12-25T00:16:27.410Z,100962.13
2022-12-25T00:18:58.978Z,100968.88
2022-12-25T00:21:28.402Z,100967.22
2022-12-25T00:23:58.854Z,100961.84
2022-12-25T00:26:29.557Z,100956.91
2022-12-25T00:29:00.549Z,100949.31
2022-12-25T00:31:32.525Z,100952.69
2022-12-25T00:34:01.925Z,100957.06
2022-12-25T00:36:33.725Z,100962.41
2022-12-25T00:39:07.403Z,100970.88
2022-12-25T00:41:49.335Z,100976.09
2022-12-25T00:44:18.826Z,100988.66
2022-12-25T00:46:50.871Z,100982.72
2022-12-25T00:49:20.239Z,100988.31
2022-12-25T00:51:51.025Z,100998.50
2022-12-25T00:54:20.723Z,101006.34
2022-12-25T00:56:50.410Z,101008.09
2022-12-25T00:59:19.824Z,101009.94
2022-12-25T01:01:51.844Z,101008.50
2022-12-25T01:04:21.370Z,101003.59
2022-12-25T01:06:50.735Z,101005.72
2022-12-25T01:09:32.629Z,101006.41
2022-12-25T01:12:01.973Z,101002.63
2022-12-25T01:14:31.340Z,101000.63
2022-12-25T01:17:03.279Z,101003.47
2022-12-25T01:19:32.620Z,101002.63
2022-12-25T01:22:01.999Z,101001.88
2022-12-25T01:24:31.392Z,101001.31
2022-12-25T01:27:00.756Z,100995.56
2022-12-25T01:29:30.177Z,100998.94
2022-12-25T01:31:59.631Z,100996.00
2022-12-25T01:34:31.696Z,100995.16
2022-12-25T01:37:01.109Z,100991.03
2022-12-25T01:39:30.453Z,101000.91
2022-12-25T01:42:00.051Z,100998.78
2022-12-25T01:44:59.606Z,101004.16
2022-12-25T01:47:28.988Z,101007.25
2022-12-25T01:50:01.152Z,101010.09
2022-12-25T01:52:31.804Z,101010.22
2022-12-25T01:55:06.212Z,101004.16
2022-12-25T01:57:38.692Z,100994.13
2022-12-25T02:00:10.315Z,100991.63
2022-12-25T02:02:40.946Z,101005.00
2022-12-25T02:05:18.668Z,101012.03
2022-12-25T02:07:49.717Z,101008.81
2022-12-25T02:10:19.741Z,101015.56
2022-12-25T02:12:50.870Z,101016.97
2022-12-25T02:15:22.751Z,101028.25
2022-12-25T02:18:03.755Z,101014.88
2022-12-25T02:20:46.291Z,101020.38
2022-12-25T02:23:37.162Z,101023.31
2022-12-25T02:26:19.010Z,101015.56
2022-12-25T02:28:57.884Z,101013.06
2022-12-25T02:31:35.017Z,101017.41
2022-12-25T02:34:11.510Z,101017.41
2022-12-25T02:36:47.258Z,101025.31
2022-12-25T02:39:43.110Z,101030.09
2022-12-25T02:42:19.360Z,101028.69
2022-12-25T02:45:05.799Z,101027.53
2022-12-25T02:47:49.351Z,101022.31
2022-12-25T02:50:32.725Z,101020.06
2022-12-25T02:53:16.735Z,101022.47
2022-12-25T02:56:01.963Z,101009.53
2022-12-25T02:58:45.234Z,101009.53
2022-12-25T03:01:32.672Z,101010.22
2022-12-25T03:04:18.454Z,101013.16
2022-12-25T03:07:03.621Z,101009.91
2022-12-25T03:09:50.697Z,101013.28
2022-12-25T03:12:27.799Z,101008.38
2022-12-25T03:15:09.885Z,101007.09
2022-12-25T03:17:41.954Z,101003.03
2022-12-25T03:20:25.390Z,100997.53
2022-12-25T03:23:08.520Z,100992.19
2022-12-25T03:25:50.873Z,100987.81
2022-12-25T03:28:20.261Z,100994.00
2022-12-25T03:31:14.207Z,100998.50
2022-12-25T03:34:24.784Z,101001.88
2022-12-25T03:37:14.466Z,100998.78
2022-12-25T03:40:04.344Z,100999.91
2022-12-25T03:42:52.630Z,100999.03
2022-12-25T03:45:40.705Z,101000.91
2022-12-25T03:48:25.412Z,101009.06
2022-12-25T03:51:16.456Z,101008.38
2022-12-25T03:54:02.450Z,101011.72
2022-12-25T03:56:45.855Z,101006.09
2022-12-25T03:59:27.762Z,101008.50
2022-12-25T04:02:09.841Z,101005.50
2022-12-25T04:04:52.449Z,101018.91
2022-12-25T04:07:36.985Z,101008.75
2022-12-25T04:10:19.509Z,101009.47
2022-12-25T04:13:01.492Z,100992.50
2022-12-25T04:15:43.439Z,100997.06
2022-12-25T04:18:25.805Z,100992.50
2022-12-25T04:21:22.917Z,101001.13
2022-12-25T04:24:07.355Z,100998.16
2022-12-25T04:26:49.254Z,101001.56
2022-12-25T04:29:31.146Z,100998.03
2022-12-25T04:32:13.043Z,100995.63
2022-12-25T04:34:54.942Z,100991.69
2022-12-25T04:37:24.382Z,100988.75
2022-12-25T04:39:56.304Z,100999.31
2022-12-25T04:42:25.700Z,100985.50
2022-12-25T04:44:55.048Z,100974.38
2022-12-25T04:47:24.422Z,100973.34
2022-12-25T04:49:53.922Z,100977.28
2022-12-25T04:52:23.330Z,100965.03
2022-12-25T04:54:52.941Z,100964.59
2022-12-25T04:57:24.940Z,100958.66
2022-12-25T04:59:54.327Z,100966.69
2022-12-25T05:02:23.826Z,100974.56
2022-12-25T05:04:53.344Z,100980.34
2022-12-25T05:07:22.718Z,100979.19
2022-12-25T05:09:52.093Z,100963.47
2022-12-25T05:12:21.454Z,100966.56
2022-12-25T05:14:53.401Z,100963.28
2022-12-25T05:17:22.773Z,100966.25
2022-12-25T05:19:52.141Z,100953.25
2022-12-25T05:22:21.525Z,100956.50
2022-12-25T05:24:50.859Z,100957.31
2022-12-25T05:27:20.297Z,100950.00
2022-12-25T05:29:49.671Z,100954.34
2022-12-25T05:32:21.638Z,100944.16
2022-12-25T05:34:51.066Z,100947.28
2022-12-25T05:37:20.505Z,100951.63
2022-12-25T05:39:49.874Z,100943.44
2022-12-25T05:42:19.219Z,100947.97
2022-12-25T05:44:48.566Z,100941.31
2022-12-25T05:47:17.947Z,100928.69
2022-12-25T05:49:49.882Z,100933.75
2022-12-25T05:52:19.244Z,100946.75
2022-12-25T05:54:48.614Z,100938.25
2022-12-25T05:57:17.984Z,100943.16
2022-12-25T05:59:47.292Z,100936.81
2022-12-25T06:02:16.735Z,100929.44
2022-12-25T06:04:46.265Z,100925.91
2022-12-25T06:07:18.172Z,100920.44
2022-12-25T06:09:47.538Z,100930.66
2022-12-25T06:12:17.038Z,100931.19
2022-12-25T06:14:46.399Z,100930.41
2022-12-25T06:17:15.847Z,100924.75
2022-12-25T06:19:45.645Z,100921.06
2022-12-25T06:22:14.995Z,100925.59
2022-12-25T06:24:47.127Z,100927.13
2022-12-25T06:27:16.510Z,100936.56
2022-12-25T06:29:45.894Z,100926.50
2022-12-25T06:32:15.326Z,100919.06
2022-12-25T06:34:44.743Z,100920.69
2022-12-25T06:37:14.200Z,100924.22
2022-12-25T06:39:43.632Z,100926.13
2022-12-25T06:42:15.596Z,100923.84
2022-12-25T06:44:44.970Z,100916.63
2022-12-25T06:47:14.370Z,100924.53
2022-12-25T06:49:43.752Z,100919.00
2022-12-25T06:52:13.193Z,100905.56
2022-12-25T06:54:42.554Z,100906.41
2022-12-25T06:57:12.038Z,100888.06
2022-12-25T06:59:45.604Z,100879.91
2022-12-25T07:02:22.422Z,100887.78
2022-12-25T07:04:52.124Z,100895.13
2022-12-25T07:07:23.030Z,100892.06
2022-12-25T07:09:52.616Z,100891.91
2022-12-25T07:12:24.449Z,100903.13
2022-12-25T07:14:57.321Z,100898.91
2022-12-25T07:17:27.331Z,100902.63
2022-12-25T07:19:57.280Z,100918.84
2022-12-25T07:22:26.750Z,100914.03
2022-12-25T07:24:56.162Z,100910.56
2022-12-25T07:27:25.580Z,100909.19
2022-12-25T07:29:57.541Z,100916.00
2022-12-25T07:32:26.940Z,100915.47
2022-12-25T07:34:56.323Z,100912.47
2022-12-25T07:37:25.729Z,100898.72
2022-12-25T07:39:55.125Z,100894.53
2022-12-25T07:42:25.469Z,100895.88
2022-12-25T07:44:59.750Z,100892.19
2022-12-25T07:47:29.107Z,100896.09
2022-12-25T07:49:58.495Z,100891.56
2022-12-25T07:52:27.940Z,100895.13
2022-12-25T07:54:57.314Z,100890.28
2022-12-25T07:57:26.719Z,100879.97
2022-12-25T07:59:58.723Z,100869.31
2022-12-25T08:02:29.195Z,100857.03
2022-12-25T08:04:58.882Z,100848.53
2022-12-25T08:07:28.610Z,100842.31
2022-12-25T08:09:58.081Z,100843.50
2022-12-25T08:12:27.484Z,100842.00
2022-12-25T08:14:59.473Z,100842.72
2022-12-25T08:17:28.929Z,100845.09
2022-12-25T08:19:58.327Z,100855.84
2022-12-25T08:22:27.765Z,100859.06
2022-12-25T08:24:57.152Z,100858.59
2022-12-25T08:27:26.699Z,100867.19
2022-12-25T08:29:58.674Z,100868.53
2022-12-25T08:32:28.322Z,100868.09
2022-12-25T08:34:57.746Z,100873.81
2022-12-25T08:37:27.175Z,100876.50
2022-12-25T08:39:56.557Z,100881.97
2022-12-25T08:42:25.980Z,100887.56
2022-12-25T08:44:55.433Z,100879.84
2022-12-25T08:47:27.422Z,100895.16
2022-12-25T08:49:56.783Z,100898.38
2022-12-25T08:52:26.570Z,100889.53
2022-12-25T08:54:56.351Z,100891.19
2022-12-25T08:57:25.752Z,100893.09
2022-12-25T08:59:55.214Z,100901.66
2022-12-25T09:02:27.376Z,100904.34
2022-12-25T09:04:56.911Z,100894.72
2022-12-25T09:07:26.325Z,100881.97
2022-12-25T09:10:04.507Z,100884.38
2022-12-25T09:12:33.917Z,100874.47
2022-12-25T09:15:03.270Z,100870.28
2022-12-25T09:17:35.857Z,100865.09
2022-12-25T09:20:05.937Z,100853.69
2022-12-25T09:22:36.430Z,100853.72
2022-12-25T09:25:06.171Z,100861.47
2022-12-25T09:27:35.563Z,100864.16
2022-12-25T09:30:04.986Z,100873.28
2022-12-25T09:32:36.993Z,100886.56
2022-12-25T09:35:06.672Z,100902.25
2022-12-25T09:37:36.083Z,100890.16
2022-12-25T09:40:05.900Z,100889.31
2022-12-25T09:42:35.451Z,100883.72
2022-12-25T09:45:08.467Z,100889.97
2022-12-25T09:47:44.580Z,100887.44
2022-12-25T09:50:16.499Z,100870.97
2022-12-25T09:52:52.540Z,100858.16
2022-12-25T09:55:25.323Z,100862.22
2022-12-25T09:57:55.455Z,100872.50
2022-12-25T10:00:26.767Z,100877.41
2022-12-25T10:03:14.915Z,100877.56
2022-12-25T10:05:55.644Z,100875.72
2022-12-25T10:08:38.447Z,100867.44
2022-12-25T10:11:18.831Z,100846.22
2022-12-25T10:14:02.667Z,100827.34
2022-12-25T10:16:40.029Z,100822.47
2022-12-25T10:19:29.658Z,100820.97
2022-12-25T10:22:03.284Z,100810.69
2022-12-25T10:24:39.184Z,100806.47
2022-12-25T10:27:16.843Z,100795.19
2022-12-25T10:29:47.432Z,100802.59
2022-12-25T10:32:17.039Z,100798.88
2022-12-25T10:34:49.627Z,100790.44
2022-12-25T10:37:19.639Z,100787.28
2022-12-25T10:39:49.021Z,100793.66
2022-12-25T10:42:33.602Z,100806.97
2022-12-25T10:45:04.470Z,100793.81
2022-12-25T10:47:37.985Z,100779.66
2022-12-25T10:50:15.413Z,100786.41
2022-12-25T10:52:57.271Z,100793.16
2022-12-25T10:55:29.567Z,100798.34
2022-12-25T10:58:02.075Z,100816.06
2022-12-25T11:00:33.674Z,100817.06
2022-12-25T11:03:03.423Z,100812.19
2022-12-25T11:05:37.624Z,100821.31
2022-12-25T11:08:21.844Z,100813.03
2022-12-25T11:10:57.890Z,100816.06
2022-12-25T11:13:29.844Z,100821.13
2022-12-25T11:16:09.495Z,100814.72
2022-12-25T11:18:49.627Z,100794.66
2022-12-25T11:21:25.556Z,100792.13
2022-12-25T11:24:00.302Z,100783.50
2022-12-25T11:26:31.315Z,100784.00
2022-12-25T11:29:01.249Z,100775.75
2022-12-25T11:31:39.873Z,100778.25
2022-12-25T11:34:14.214Z,100785.31
2022-12-25T11:36:49.578Z,100779.53
2022-12-25T11:39:26.636Z,100779.38
2022-12-25T11:42:00.532Z,100783.72
2022-12-25T11:44:43.723Z,100777.31
2022-12-25T11:47:20.399Z,100772.09
2022-12-25T11:49:58.622Z,100765.53
2022-12-25T11:52:38.072Z,100755.19
2022-12-25T11:55:14.421Z,100753.84
2022-12-25T11:57:46.260Z,100751.63
2022-12-25T12:00:18.759Z,100739.50
2022-12-25T12:02:53.973Z,100726.19
2022-12-25T12:05:28.561Z,100709.66
2022-12-25T12:08:03.245Z,100706.72
2022-12-25T12:10:41.156Z,100704.38
2022-12-25T12:13:27.783Z,100708.22
2022-12-25T12:15:58.535Z,100698.13
2022-12-25T12:18:33.511Z,100692.72
2022-12-25T12:21:05.581Z,100686.00
2022-12-25T12:23:39.850Z,100681.94
2022-12-25T12:26:09.293Z,100676.06
2022-12-25T12:28:47.564Z,100683.34
2022-12-25T12:31:17.709Z,100686.22
2022-12-25T12:33:56.032Z,100674.75
2022-12-25T12:36:35.561Z,100668.53
2022-12-25T12:39:08.693Z,100667.88
2022-12-25T12:41:48.374Z,100661.44
2022-12-25T12:44:19.652Z,100663.66
2022-12-25T12:46:57.710Z,100649.16
2022-12-25T12:49:29.409Z,100651.00
2022-12-25T12:52:16.114Z,100650.66
2022-12-25T12:54:59.618Z,100630.63
2022-12-25T12:57:32.758Z,100639.22
2022-12-25T13:00:10.042Z,100626.44
2022-12-25T13:03:05.560Z,100625.03
2022-12-25T13:05:41.807Z,100608.19
2022-12-25T13:08:28.341Z,100622.66
2022-12-25T13:11:13.250Z,100615.94
2022-12-25T13:13:44.577Z,100615.47
2022-12-25T13:16:22.353Z,100613.44
2022-12-25T13:18:53.760Z,100618.81
2022-12-25T13:21:25.572Z,100621.53
2022-12-25T13:24:08.876Z,100620.53
2022-12-25T13:26:42.097Z,100617.13
2022-12-25T13:29:25.032Z,100609.41
2022-12-25T13:31:54.247Z,100604.19
2022-12-25T13:34:33.790Z,100610.44
2022-12-25T13:37:09.714Z,100602.50
2022-12-25T13:39:42.114Z,100591.22
2022-12-25T13:42:20.689Z,100586.06
2022-12-25T13:44:52.614Z,100577.59
2022-12-25T13:47:25.691Z,100577.66
2022-12-25T13:49:56.936Z,100563.84
2022-12-25T13:52:31.143Z,100552.41
2022-12-25T13:55:02.877Z,100552.56
2022-12-25T13:57:37.986Z,100542.78
2022-12-25T14:00:10.062Z,100545.13
2022-12-25T14:02:42.223Z,100547.72
2022-12-25T14:05:26.267Z,100546.00
2022-12-25T14:07:56.247Z,100538.94
2022-12-25T14:10:27.864Z,100529.50
2022-12-25T14:13:04.785Z,100525.09
2022-12-25T14:15:36.426Z,100520.25
2022-12-25T14:18:05.922Z,100507.44
2022-12-25T14:20:39.788Z,100503.06
2022-12-25T14:23:10.092Z,100487.72
2022-12-25T14:25:45.689Z,100468.00
2022-12-25T14:28:23.439Z,100468.50
2022-12-25T14:30:53.096Z,100460.41
2022-12-25T14:33:25.930Z,100473.88
2022-12-25T14:35:55.677Z,100477.13
2022-12-25T14:38:27.400Z,100486.22
2022-12-25T14:41:04.499Z,100480.69
2022-12-25T14:43:37.165Z,100500.06
2022-12-25T14:46:09.081Z,100501.41
2022-12-25T14:48:38.497Z,100501.41
2022-12-25T14:51:11.681Z,100499.34
2022-12-25T14:53:43.794Z,100491.47
2022-12-25T14:56:13.213Z,100491.47
2022-12-25T14:58:50.924Z,100478.34
2022-12-25T15:01:25.013Z,100483.72
2022-12-25T15:03:54.973Z,100466.72
2022-12-25T15:06:25.376Z,100467.72
2022-12-25T15:09:00.082Z,100466.72
2022-12-25T15:11:30.172Z,100462.16
2022-12-25T15:14:02.386Z,100456.78
2022-12-25T15:16:35.444Z,100454.59
2022-12-25T15:19:04.889Z,100459.63
2022-12-25T15:21:37.105Z,100450.91
2022-12-25T15:24:07.186Z,100457.47
2022-12-25T15:26:36.587Z,100462.53
2022-12-25T15:29:09.433Z,100463.34
2022-12-25T15:31:41.235Z,100453.75
2022-12-25T15:34:20.373Z,100448.19
2022-12-25T15:36:49.873Z,100455.13
2022-12-25T15:39:19.238Z,100456.16
2022-12-25T15:42:01.129Z,100448.72
2022-12-25T15:44:33.068Z,100444.16
2022-12-25T15:47:02.421Z,100438.63
2022-12-25T15:49:31.851Z,100429.34
2022-12-25T15:52:03.613Z,100429.50
2022-12-25T15:54:33.210Z,100428.00
2022-12-25T15:57:04.979Z,100420.75
2022-12-25T15:59:36.943Z,100409.78
2022-12-25T16:02:16.226Z,100413.31
2022-12-25T16:04:46.409Z,100406.09
2022-12-25T16:07:17.918Z,100414.53
2022-12-25T16:09:47.775Z,100412.84
2022-12-25T16:12:17.154Z,100412.69
2022-12-25T16:14:49.129Z,100409.31
2022-12-25T16:17:18.494Z,100404.75
2022-12-25T16:19:48.006Z,100399.69
2022-12-25T16:22:23.103Z,100394.81
2022-12-25T16:24:52.905Z,100394.66
2022-12-25T16:27:22.548Z,100393.63
2022-12-25T16:29:55.029Z,100382.84
2022-12-25T16:32:24.554Z,100387.88
2022-12-25T16:34:54.091Z,100380.97
2022-12-25T16:37:24.566Z,100379.66
2022-12-25T16:39:53.965Z,100378.66
2022-12-25T16:42:23.403Z,100369.72
2022-12-25T16:44:55.377Z,100369.91
2022-12-25T16:47:24.739Z,100357.66
2022-12-25T16:49:54.094Z,100362.00
2022-12-25T16:52:23.674Z,100356.25
2022-12-25T16:54:53.044Z,100351.34
2022-12-25T16:57:22.416Z,100352.19
2022-12-25T16:59:54.720Z,100348.38
2022-12-25T17:02:24.623Z,100348.53
2022-12-25T17:04:54.703Z,100340.09
2022-12-25T17:07:24.112Z,100331.00
2022-12-25T17:09:53.530Z,100327.09
2022-12-25T17:12:22.896Z,100327.09
2022-12-25T17:14:54.938Z,100314.81
2022-12-25T17:17:24.303Z,100322.63
2022-12-25T17:19:53.711Z,100320.84
2022-12-25T17:22:23.114Z,100320.03
2022-12-25T17:24:52.503Z,100311.75
2022-12-25T17:27:21.888Z,100310.38
2022-12-25T17:29:51.519Z,100312.25
2022-12-25T17:32:23.502Z,100313.94
2022-12-25T17:34:53.362Z,100308.69
2022-12-25T17:37:22.796Z,100307.50
2022-12-25T17:39:52.152Z,100300.13
2022-12-25T17:42:21.558Z,100288.47
2022-12-25T17:44:51.001Z,100283.06
2022-12-25T17:47:23.486Z,100285.03
2022-12-25T17:49:53.025Z,100285.69
2022-12-25T17:52:22.397Z,100276.03
2022-12-25T17:54:51.819Z,100259.09
2022-12-25T17:57:21.233Z,100264.88
2022-12-25T17:59:51.679Z,100271.38
2022-12-25T18:02:24.092Z,100259.88
2022-12-25T18:04:53.697Z,100259.31
2022-12-25T18:07:23.322Z,100263.50
2022-12-25T18:09:52.950Z,100262.13
2022-12-25T18:12:22.418Z,100255.50
2022-12-25T18:14:51.794Z,100255.50
2022-12-25T18:17:23.811Z,100261.53
2022-12-25T18:19:53.343Z,100264.06
2022-12-25T18:22:22.840Z,100263.50
2022-12-25T18:24:52.700Z,100253.16
2022-12-25T18:27:22.190Z,100247.41
2022-12-25T18:29:51.524Z,100240.81
2022-12-25T18:32:28.040Z,100237.91
2022-12-25T18:34:58.035Z,100234.22
2022-12-25T18:37:28.044Z,100230.19
2022-12-25T18:39:57.447Z,100226.50
2022-12-25T18:42:43.113Z,100231.31
2022-12-25T18:45:14.830Z,100237.53
2022-12-25T18:47:47.406Z,100236.53
2022-12-25T18:50:16.819Z,100229.28
2022-12-25T18:52:48.406Z,100237.16
2022-12-25T18:55:20.793Z,100229.72
2022-12-25T18:57:50.475Z,100228.69
2022-12-25T19:00:20.626Z,100227.31
2022-12-25T19:02:53.292Z,100228.31
2022-12-25T19:05:23.670Z,100228.31
2022-12-25T19:07:53.200Z,100229.34
2022-12-25T19:10:22.836Z,100218.38
2022-12-25T19:12:52.244Z,100220.50
2022-12-25T19:15:21.664Z,100212.84
2022-12-25T19:17:53.844Z,100214.34
2022-12-25T19:20:23.245Z,100213.31
2022-12-25T19:22:52.702Z,100221.88
2022-12-25T19:25:22.295Z,100213.16
2022-12-25T19:27:51.673Z,100200.09
2022-12-25T19:30:21.224Z,100199.06
2022-12-25T19:32:53.251Z,100193.94
2022-12-25T19:35:22.828Z,100200.81
2022-12-25T19:37:52.312Z,100193.34
2022-12-25T19:40:22.628Z,100193.34
2022-12-25T19:42:52.063Z,100182.56
2022-12-25T19:45:21.587Z,100184.41
2022-12-25T19:47:53.566Z,100180.72
2022-12-25T19:50:28.349Z,100180.50
2022-12-25T19:52:57.865Z,100182.38
2022-12-25T19:55:27.291Z,100183.03
2022-12-25T19:57:59.181Z,100177.41
2022-12-25T20:00:28.652Z,100176.41
2022-12-25T20:03:01.446Z,100170.81
2022-12-25T20:05:31.911Z,100167.47
2022-12-25T20:08:01.398Z,100173.53
2022-12-25T20:10:30.770Z,100171.84
2022-12-25T20:13:00.255Z,100159.81
2022-12-25T20:15:29.617Z,100164.56
2022-12-25T20:18:02.905Z,100170.81
2022-12-25T20:20:32.940Z,100171.63
2022-12-25T20:23:02.341Z,100178.91
2022-12-25T20:25:31.801Z,100173.94
2022-12-25T20:28:01.250Z,100177.09
2022-12-25T20:30:30.685Z,100183.97
2022-12-25T20:33:02.682Z,100177.38
2022-12-25T20:35:32.089Z,100181.94
2022-12-25T20:38:01.478Z,100182.31
2022-12-25T20:40:32.461Z,100183.16
2022-12-25T20:43:11.631Z,100181.94
2022-12-25T20:45:43.103Z,100182.47
2022-12-25T20:48:15.096Z,100183.16
2022-12-25T20:50:44.487Z,100190.22
2022-12-25T20:53:13.883Z,100184.03
2022-12-25T20:55:48.114Z,100189.91
2022-12-25T20:58:19.588Z,100194.06
2022-12-25T21:00:49.048Z,100199.47
2022-12-25T21:03:21.319Z,100204.06
2022-12-25T21:05:54.015Z,100202.13
2022-12-25T21:08:25.804Z,100195.22
2022-12-25T21:11:00.679Z,100203.34
2022-12-25T21:13:32.900Z,100205.84
2022-12-25T21:16:02.785Z,100204.00
2022-12-25T21:18:34.791Z,100207.53
2022-12-25T21:21:09.972Z,100213.97
2022-12-25T21:23:41.741Z,100208.09
2022-12-25T21:26:16.808Z,100199.16
2022-12-25T21:28:46.177Z,100203.09
2022-12-25T21:31:15.721Z,100213.06
2022-12-25T21:33:52.053Z,100222.63
2022-12-25T21:36:27.096Z,100208.94
2022-12-25T21:38:58.792Z,100212.66
2022-12-25T21:41:29.892Z,100214.53
2022-12-25T21:43:59.764Z,100209.13
2022-12-25T21:46:30.444Z,100202.06
2022-12-25T21:49:03.350Z,100225.34
2022-12-25T21:51:47.505Z,100209.50
2022-12-25T21:54:18.454Z,100208.69
2022-12-25T21:56:49.738Z,100209.72
2022-12-25T21:59:20.741Z,100211.78
2022-12-25T22:01:51.752Z,100195.38
2022-12-25T22:04:25.670Z,100205.34
2022-12-25T22:07:07.778Z,100206.38
2022-12-25T22:09:37.413Z,100205.53
2022-12-25T22:12:19.878Z,100205.72
2022-12-25T22:15:02.495Z,100195.75
2022-12-25T22:17:46.344Z,100201.38
2022-12-25T22:20:20.353Z,100194.75
2022-12-25T22:22:50.131Z,100208.94
2022-12-25T22:25:20.415Z,100212.09
2022-12-25T22:27:50.945Z,100221.44
2022-12-25T22:30:22.871Z,100227.66
2022-12-25T22:32:52.536Z,100229.97
2022-12-25T22:35:25.052Z,100239.28
2022-12-25T22:37:54.799Z,100228.50
2022-12-25T22:40:24.573Z,100236.53
2022-12-25T22:42:56.497Z,100241.75
2022-12-25T22:45:26.115Z,100246.19
2022-12-25T22:47:55.501Z,100246.84
2022-12-25T22:50:27.525Z,100243.22
2022-12-25T22:52:56.896Z,100250.94
2022-12-25T22:55:26.414Z,100251.16
2022-12-25T22:57:55.807Z,100248.06
2022-12-25T23:00:25.226Z,100250.56
2022-12-25T23:02:54.727Z,100248.88
2022-12-25T23:05:27.123Z,100255.13
2022-12-25T23:07:56.554Z,100246.38
2022-12-25T23:10:25.930Z,100237.25
2022-12-25T23:13:07.813Z,100234.72
2022-12-25T23:15:37.216Z,100210.41
2022-12-25T23:18:19.688Z,100230.63
2022-12-25T23:21:04.307Z,100229.97
2022-12-25T23:23:46.217Z,100245.16
2022-12-25T23:26:17.212Z,100242.06
2022-12-25T23:28:59.269Z,100245.41
2022-12-25T23:31:31.709Z,100239.81
2022-12-25T23:34:01.286Z,100236.28
2022-12-25T23:36:33.658Z,100264.13
2022-12-25T23:39:09.562Z,100240.84
2022-12-25T23:41:39.970Z,100236.28
2022-12-25T23:44:09.788Z,100243.38
2022-12-25T23:46:40.136Z,100242.53
2022-12-25T23:49:11.291Z,100249.78
2022-12-25T23:51:45.686Z,100249.34
2022-12-25T23:54:17.613Z,100235.66
2022-12-25T23:56:47.563Z,100253.91
2022-12-25T23:59:17.345Z,100249.53
